Terminal Aerodrome Forecast
Issued by NWS Melbourne, FL

Home | Current Version | Previous Version | Text Only | Print | Product List | Glossary On
Versions: 1 2 3 4 5 6 7 8 9 10 11
340
FTUS42 KMLB 301738
TAFDAB
TAF
KDAB 301738Z 3018/3118 18009KT P6SM FEW050 SCT250
     FM302000 14009KT P6SM SCT060
     FM310000 16005KT P6SM SCT070
     FM311500 21012G18KT P6SM FEW030 SCT080=

USA.gov is the U.S. government's official web portal to all federal, state and local government web resources and services.